To NAV CANADA Home Page Login to a new session Search on AWWS site Disclaimer Vers la page française équivalente Tips FAQ What's new on the site To the Forecasts and Observations / NOTAM section To "File a Flight Plan" website Publications and other links Update of the User's profile FIC Telephone Numbers My Weather Data Folder Route Weather Data Regional Weather Data Local Weather Data To the Forecasts and Observations / NOTAM section
Request Generated 05/27/2022 at 14:31:23 UTC . Weather information available at that time is displayed.

METAR/TAF

If you find any discrepancies between the coded METAR/TAF and the plain language METAR/TAF please use the coded METAR/TAF. LWIS bulletins are not decoded in plain language.

CALGARY/SPRINGBANK/AB    (show WxCam)

METAR CYBW 271400Z AUTO 30006KT 9SM FEW071 BKN190 10/02 A2969 RMK SLP057 DENSIT ALT 4600FT=
METAR
LOCATION
CYBW - CALGARY/SPRINGBANK/AB
DATE - TIME
27 MAY 2022 - 1400 UTC
WIND
300 TRUE @ 6  KNOTS
VISIBILITY
9 STAT.  MILES
RUNWAY VISUAL RANGE
WEATHER
CLOUDINESS
FEW CLOUDS (1/8 - 2/8) 7100  FT
BROKEN CLOUDS (5/8 - 7/8) 19000  FT
TEMP / DEWPOINT
10 C / 2 C
ALTIMETER
29.69 IN HG
RECENT WEATHER
WIND SHEAR

METAR CYBW 271300Z AUTO VRB02KT 9SM FEW076 SCT110 BKN180 BKN200 08/03 A2970 RMK LP061 DENSITY ALT 4300FT=
METAR
LOCATION
CYBW - CALGARY/SPRINGBANK/AB
DATE - TIME
27 MAY 2022 - 1300 UTC
WIND
VRB @ 2  KNOTS
VISIBILITY
9 STAT.  MILES
RUNWAY VISUAL RANGE
WEATHER
CLOUDINESS
FEW CLOUDS (1/8 - 2/8) 7600  FT
SCATTERED CLOUDS (3/8 - 4/8) 11000  FT
BROKEN CLOUDS (5/8 - 7/8) 18000  FT
BROKEN CLOUDS (5/8 - 7/8) 20000  FT
TEMP / DEWPOINT
8 C / 3 C
ALTIMETER
29.70 IN HG
RECENT WEATHER
WIND SHEAR

METAR CYBW 271200Z AUTO 00000KT 9SM OVC081 07/01 A2972 RMK SLP069 DENSITY ALT 4 0FT=
METAR
LOCATION
CYBW - CALGARY/SPRINGBANK/AB
DATE - TIME
27 MAY 2022 - 1200 UTC
WIND
CALM
VISIBILITY
9 STAT.  MILES
RUNWAY VISUAL RANGE
WEATHER
CLOUDINESS
OVERCAST 8100  FT
TEMP / DEWPOINT
7 C / 1 C
ALTIMETER
29.72 IN HG
RECENT WEATHER
WIND SHEAR

Your time UTC time
Weather data provided by Environment Canada and NAV CANADA